To NAV CANADA Home Page Login to a new session Search on AWWS site Feedback and Comments Disclaimer Vers la page française équivalente Tips FAQ What's new on the site To the Forecasts and Observations / NOTAM section To "File a Flight Plan" website Publications and other links Update of the User's profile FIC Telephone Numbers My Weather Data Folder Route Weather Data Regional Weather Data Local Weather Data To the Forecasts and Observations / NOTAM section
Request Generated 08/26/2016 at 10:07:33 UTC . Weather information available at that time is displayed.

METAR/TAF

LYNN LAKE/MB    (show WxCam)

METAR CYYL 261000Z AUTO /////KT 7SM -RA BKN015 BKN020 OVC026 11/09
A2994 RMK WND MISG SLP148=
SPECI CYYL 260954Z AUTO /////KT 6SM -RA BR SCT015 BKN020 OVC030 11/09
A2994 RMK WND MISG SLP148=
SPECI CYYL 260949Z AUTO /////KT 8SM BKN020 OVC032 11/09 A2994 RMK WND
MISG SLP147=
METAR CYYL 260900Z AUTO /////KT 9SM OVC036 11/09 A2993 RMK WND MISG
SLP145=
METAR CYYL 260800Z AUTO /////KT 9SM OVC034 12/09 A2993 RMK WND MISG
SLP146=

TAF CYYL 260638Z 2607/2619 02005KT P6SM BKN020 TEMPO 2607/2610 BKN030
FM261000 02006KT P6SM SCT030 TEMPO 2610/2613 BKN030
FM261300 03006KT P6SM FEW240
RMK FCST BASED ON AUTO OBS. NXT FCST BY 261300Z=
Your time UTC time
Weather data provided by Environment Canada and NAV CANADA